createdAt,value
2023-01-07T00:01:29.247Z,5.73
2023-01-07T00:04:32.213Z,6.63
2023-01-07T00:07:35.180Z,8.93
2023-01-07T00:10:38.422Z,5.90
2023-01-07T00:13:43.024Z,5.40
2023-01-07T00:16:46.059Z,6.50
2023-01-07T00:19:49.053Z,7.27
2023-01-07T00:22:52.251Z,6.80
2023-01-07T00:26:01.505Z,4.80
2023-01-07T00:29:07.011Z,4.70
2023-01-07T00:32:10.003Z,5.90
2023-01-07T00:35:23.018Z,6.57
2023-01-07T00:38:26.045Z,5.07
2023-01-07T00:41:29.453Z,5.33
2023-01-07T00:44:34.444Z,8.03
2023-01-07T00:47:37.443Z,6.70
2023-01-07T00:50:40.480Z,7.37
2023-01-07T00:53:43.931Z,7.90
2023-01-07T00:56:46.927Z,7.93
2023-01-07T00:59:51.383Z,6.27
2023-01-07T01:02:54.912Z,11.70
2023-01-07T01:06:02.841Z,12.27
2023-01-07T01:09:05.820Z,9.37
2023-01-07T01:12:08.890Z,7.53
2023-01-07T01:15:15.459Z,7.13
2023-01-07T01:18:18.427Z,12.23
2023-01-07T01:21:21.435Z,8.17
2023-01-07T01:24:24.395Z,9.80
2023-01-07T01:27:27.372Z,9.03
2023-01-07T01:30:31.749Z,11.13
2023-01-07T01:33:35.011Z,10.17
2023-01-07T01:36:38.727Z,13.50
2023-01-07T01:39:41.723Z,9.43
2023-01-07T01:42:44.730Z,10.93
2023-01-07T01:45:49.039Z,14.33
2023-01-07T01:48:56.290Z,12.37
2023-01-07T01:52:04.054Z,8.80
2023-01-07T01:55:09.373Z,12.03
2023-01-07T01:58:17.545Z,12.20
2023-01-07T02:01:22.048Z,11.47
2023-01-07T02:04:28.107Z,10.17
2023-01-07T02:07:31.107Z,12.03
2023-01-07T02:10:35.098Z,11.33
2023-01-07T02:13:56.540Z,15.83
2023-01-07T02:17:06.806Z,12.97
2023-01-07T02:20:38.720Z,12.30
2023-01-07T02:24:09.936Z,14.53
2023-01-07T02:27:44.259Z,18.20
2023-01-07T02:31:12.652Z,14.03
2023-01-07T02:34:23.569Z,16.93
2023-01-07T02:37:31.088Z,17.27
2023-01-07T02:40:40.109Z,15.40
2023-01-07T02:43:50.077Z,15.60
2023-01-07T02:46:58.951Z,19.17
2023-01-07T02:50:03.323Z,20.00
2023-01-07T02:53:08.560Z,16.53
2023-01-07T02:56:25.631Z,16.37
2023-01-07T02:59:51.271Z,17.77
2023-01-07T03:03:13.060Z,17.03
2023-01-07T03:06:33.886Z,16.73
2023-01-07T03:09:42.824Z,18.43
2023-01-07T03:12:49.932Z,19.70
2023-01-07T03:15:56.976Z,17.00
2023-01-07T03:19:02.673Z,17.07
2023-01-07T03:22:09.465Z,16.70
2023-01-07T03:25:14.167Z,18.40
2023-01-07T03:28:20.118Z,18.87
2023-01-07T03:31:23.944Z,17.97
2023-01-07T03:34:28.769Z,16.37
2023-01-07T03:37:35.040Z,15.77
2023-01-07T03:40:38.944Z,18.83
2023-01-07T03:43:40.965Z,18.20
2023-01-07T03:46:44.384Z,17.23
2023-01-07T03:49:47.466Z,19.87
2023-01-07T03:52:52.054Z,16.77
2023-01-07T03:55:55.027Z,19.07
2023-01-07T03:58:58.035Z,20.30
2023-01-07T04:02:01.158Z,18.63
2023-01-07T04:05:05.039Z,17.23
2023-01-07T04:08:09.365Z,17.27
2023-01-07T04:11:12.417Z,16.17
2023-01-07T04:14:15.399Z,17.30
2023-01-07T04:17:18.407Z,16.10
2023-01-07T04:20:21.423Z,17.77
2023-01-07T04:23:25.861Z,14.30
2023-01-07T04:26:28.850Z,16.07
2023-01-07T04:29:32.042Z,18.00
2023-01-07T04:32:35.140Z,17.60
2023-01-07T04:35:39.557Z,18.70
2023-01-07T04:38:43.887Z,17.23
2023-01-07T04:41:46.899Z,16.53
2023-01-07T04:44:49.883Z,14.77
2023-01-07T04:47:56.210Z,18.10
2023-01-07T04:50:59.225Z,20.83
2023-01-07T04:54:03.570Z,17.57
2023-01-07T04:57:06.546Z,16.90
2023-01-07T05:00:10.792Z,19.13
2023-01-07T05:03:13.817Z,18.97
2023-01-07T05:06:16.805Z,19.23
2023-01-07T05:09:21.473Z,17.67
2023-01-07T05:12:24.517Z,18.37
2023-01-07T05:15:27.507Z,16.60
2023-01-07T05:18:31.152Z,16.17
2023-01-07T05:21:34.156Z,17.57
2023-01-07T05:24:38.479Z,14.23
2023-01-07T05:27:41.449Z,17.20
2023-01-07T05:30:44.792Z,15.87
2023-01-07T05:33:47.940Z,16.23
2023-01-07T05:36:50.963Z,15.83
2023-01-07T05:39:55.285Z,16.63
2023-01-07T05:42:58.282Z,15.67
2023-01-07T05:46:01.468Z,16.67
2023-01-07T05:49:04.606Z,15.13
2023-01-07T05:52:07.589Z,15.33
2023-01-07T05:55:13.321Z,17.53
2023-01-07T05:58:16.317Z,13.47
2023-01-07T06:01:19.365Z,13.40
2023-01-07T06:04:22.480Z,16.47
2023-01-07T06:07:25.551Z,14.67
2023-01-07T06:10:29.903Z,13.57
2023-01-07T06:13:32.890Z,15.83
2023-01-07T06:16:35.938Z,13.53
2023-01-07T06:19:38.989Z,15.13
2023-01-07T06:22:42.850Z,15.27
2023-01-07T06:25:47.186Z,12.77
2023-01-07T06:28:51.955Z,16.07
2023-01-07T06:31:54.974Z,15.40
2023-01-07T06:34:58.061Z,14.80
2023-01-07T06:38:01.402Z,13.20
2023-01-07T06:41:06.185Z,14.63
2023-01-07T06:44:09.266Z,13.53
2023-01-07T06:47:12.241Z,12.33
2023-01-07T06:50:15.751Z,14.07
2023-01-07T06:53:18.772Z,16.10
2023-01-07T06:56:23.140Z,16.57
2023-01-07T06:59:26.204Z,14.07
2023-01-07T07:02:29.923Z,16.47
2023-01-07T07:05:33.318Z,13.57
2023-01-07T07:08:36.334Z,14.87
2023-01-07T07:11:40.690Z,17.07
2023-01-07T07:14:44.022Z,16.27
2023-01-07T07:17:47.153Z,13.37
2023-01-07T07:20:50.156Z,14.93
2023-01-07T07:23:53.142Z,14.50
2023-01-07T07:26:57.516Z,13.80
2023-01-07T07:30:00.480Z,14.00
2023-01-07T07:33:04.106Z,13.80
2023-01-07T07:36:07.840Z,15.20
2023-01-07T07:39:12.633Z,16.63
2023-01-07T07:42:16.939Z,15.50
2023-01-07T07:45:20.607Z,15.87
2023-01-07T07:48:23.577Z,15.03
2023-01-07T07:51:26.585Z,15.63
2023-01-07T07:54:29.603Z,15.07
2023-01-07T07:57:33.924Z,14.87
2023-01-07T08:00:36.928Z,16.77
2023-01-07T08:03:40.010Z,15.57
2023-01-07T08:06:43.099Z,15.17
2023-01-07T08:09:46.045Z,14.17
2023-01-07T08:12:50.701Z,13.47
2023-01-07T08:15:53.885Z,15.27
2023-01-07T08:18:56.911Z,16.27
2023-01-07T08:21:59.899Z,14.37
2023-01-07T08:25:03.056Z,17.20
2023-01-07T08:28:07.527Z,13.93
2023-01-07T08:31:11.077Z,16.00
2023-01-07T08:34:14.101Z,14.90
2023-01-07T08:37:17.658Z,15.93
2023-01-07T08:40:20.722Z,15.13
2023-01-07T08:43:25.092Z,15.67
2023-01-07T08:46:28.114Z,15.77
2023-01-07T08:49:31.119Z,17.60
2023-01-07T08:52:34.427Z,14.30
2023-01-07T08:55:37.440Z,13.07
2023-01-07T08:58:41.830Z,13.07
2023-01-07T09:01:44.996Z,16.83
2023-01-07T09:04:48.095Z,14.07
2023-01-07T09:07:53.221Z,13.20
2023-01-07T09:10:56.241Z,14.67
2023-01-07T09:14:00.622Z,12.67
2023-01-07T09:17:03.642Z,12.17
2023-01-07T09:20:08.363Z,10.73
2023-01-07T09:23:11.469Z,10.37
2023-01-07T09:26:14.560Z,8.30
2023-01-07T09:29:18.931Z,8.87
2023-01-07T09:32:22.195Z,7.63
2023-01-07T09:35:25.155Z,8.57
2023-01-07T09:38:28.140Z,6.40
2023-01-07T09:41:41.585Z,6.13
2023-01-07T09:45:01.754Z,6.00
2023-01-07T09:48:22.065Z,5.47
2023-01-07T09:51:30.887Z,5.70
2023-01-07T09:54:36.791Z,4.80
2023-01-07T09:57:39.968Z,4.70
2023-01-07T10:00:56.060Z,5.03
2023-01-07T10:04:14.527Z,3.33
2023-01-07T10:07:36.585Z,4.73
2023-01-07T10:10:46.800Z,3.27
2023-01-07T10:14:03.168Z,2.20
2023-01-07T10:17:19.530Z,2.30
2023-01-07T10:20:33.197Z,4.37
2023-01-07T10:23:40.378Z,3.10
2023-01-07T10:26:48.421Z,1.77
2023-01-07T10:29:55.076Z,4.53
2023-01-07T10:33:11.847Z,1.77
2023-01-07T10:36:22.034Z,1.87
2023-01-07T10:39:32.161Z,1.83
2023-01-07T10:42:40.823Z,3.03
2023-01-07T10:46:04.780Z,1.33
2023-01-07T10:49:32.275Z,1.37
2023-01-07T10:52:45.890Z,1.50
2023-01-07T10:55:55.763Z,1.20
2023-01-07T10:58:59.270Z,1.47
2023-01-07T11:02:02.582Z,1.40
2023-01-07T11:05:08.017Z,2.60
2023-01-07T11:08:16.859Z,2.93
2023-01-07T11:11:24.091Z,1.73
2023-01-07T11:14:30.297Z,1.20
2023-01-07T11:17:36.913Z,0.97
2023-01-07T11:20:49.897Z,2.70
2023-01-07T11:23:52.917Z,1.30
2023-01-07T11:27:01.232Z,1.03
2023-01-07T11:30:07.293Z,1.10
2023-01-07T11:33:23.050Z,1.10
2023-01-07T11:36:47.357Z,0.90
2023-01-07T11:39:59.444Z,1.47
2023-01-07T11:43:04.108Z,1.63
2023-01-07T11:46:20.225Z,1.70
2023-01-07T11:49:30.801Z,1.10
2023-01-07T11:52:35.386Z,0.80
2023-01-07T11:55:38.632Z,1.20
2023-01-07T11:58:44.602Z,1.33
2023-01-07T12:01:49.501Z,2.00
2023-01-07T12:04:52.564Z,1.03
2023-01-07T12:07:58.768Z,1.20
2023-01-07T12:11:07.069Z,0.97
2023-01-07T12:14:19.327Z,1.10
2023-01-07T12:17:24.795Z,2.10
2023-01-07T12:20:41.990Z,0.90
2023-01-07T12:23:59.278Z,1.40
2023-01-07T12:27:11.536Z,0.87
2023-01-07T12:30:30.560Z,1.47
2023-01-07T12:33:51.527Z,0.70
2023-01-07T12:37:00.677Z,0.90
2023-01-07T12:40:23.098Z,1.17
2023-01-07T12:43:31.413Z,1.47
2023-01-07T12:46:39.828Z,1.33
2023-01-07T12:49:49.372Z,0.80
2023-01-07T12:52:57.328Z,1.10
2023-01-07T12:56:06.056Z,1.60
2023-01-07T12:59:46.478Z,0.80
2023-01-07T13:02:54.417Z,1.33
2023-01-07T13:06:02.644Z,1.30
2023-01-07T13:09:17.256Z,1.20
2023-01-07T13:12:45.998Z,0.87
2023-01-07T13:15:50.093Z,3.17
2023-01-07T13:18:53.105Z,0.80
2023-01-07T13:21:56.492Z,1.03
2023-01-07T13:25:12.451Z,1.70
2023-01-07T13:28:38.624Z,2.10
2023-01-07T13:32:00.246Z,2.50
2023-01-07T13:35:29.200Z,1.10
2023-01-07T13:38:48.015Z,1.30
2023-01-07T13:42:07.101Z,1.10
2023-01-07T13:45:15.429Z,1.27
2023-01-07T13:48:22.210Z,1.57
2023-01-07T13:51:28.978Z,1.33
2023-01-07T13:55:00.512Z,1.10
2023-01-07T13:58:03.905Z,1.57
2023-01-07T14:01:09.652Z,1.17
2023-01-07T14:04:35.428Z,2.90
2023-01-07T14:07:46.926Z,1.47
2023-01-07T14:10:54.223Z,3.07
2023-01-07T14:14:06.957Z,3.00
2023-01-07T14:17:21.436Z,2.10
2023-01-07T14:20:32.726Z,2.03
2023-01-07T14:23:45.003Z,1.90
2023-01-07T14:26:57.126Z,2.30
2023-01-07T14:30:16.059Z,4.77
2023-01-07T14:33:23.719Z,1.80
2023-01-07T14:37:11.540Z,1.70
2023-01-07T14:41:00.506Z,1.50
2023-01-07T14:44:31.040Z,1.70
2023-01-07T14:47:53.465Z,1.50
2023-01-07T14:51:12.218Z,2.07
2023-01-07T14:54:36.802Z,2.37
2023-01-07T14:57:47.918Z,4.97
2023-01-07T15:01:21.961Z,3.23
2023-01-07T15:05:00.188Z,2.37
2023-01-07T15:08:26.790Z,1.57
2023-01-07T15:11:48.754Z,1.60
2023-01-07T15:15:23.810Z,2.40
2023-01-07T15:18:26.952Z,2.17
2023-01-07T15:21:40.197Z,3.30
2023-01-07T15:24:51.643Z,1.40
2023-01-07T15:28:01.910Z,1.70
2023-01-07T15:31:13.536Z,1.60
2023-01-07T15:34:17.572Z,2.00
2023-01-07T15:37:21.355Z,2.60
2023-01-07T15:40:26.706Z,1.87
2023-01-07T15:43:31.895Z,2.10
2023-01-07T15:46:40.122Z,3.00
2023-01-07T15:49:43.202Z,3.00
2023-01-07T15:52:49.975Z,1.50
2023-01-07T15:55:58.558Z,2.33
2023-01-07T15:59:01.771Z,1.97
2023-01-07T16:02:16.358Z,3.30
2023-01-07T16:05:20.176Z,1.90
2023-01-07T16:08:29.049Z,3.13
2023-01-07T16:11:33.416Z,1.70
2023-01-07T16:14:37.242Z,2.37
2023-01-07T16:17:50.952Z,3.33
2023-01-07T16:20:57.682Z,3.63
2023-01-07T16:24:00.717Z,2.03
2023-01-07T16:27:06.359Z,2.10
2023-01-07T16:30:15.578Z,1.80
2023-01-07T16:33:21.876Z,2.90
2023-01-07T16:36:28.416Z,1.80
2023-01-07T16:39:33.546Z,1.93
2023-01-07T16:42:38.446Z,2.33
2023-01-07T16:45:42.957Z,2.20
2023-01-07T16:48:46.691Z,1.73
2023-01-07T16:51:51.417Z,2.03
2023-01-07T16:54:54.444Z,1.90
2023-01-07T16:57:58.774Z,2.10
2023-01-07T17:01:03.282Z,2.00
2023-01-07T17:04:10.461Z,4.77
2023-01-07T17:07:21.668Z,1.90
2023-01-07T17:10:27.985Z,2.67
2023-01-07T17:13:35.020Z,3.47
2023-01-07T17:16:38.364Z,2.17
2023-01-07T17:19:42.963Z,2.53
2023-01-07T17:22:47.105Z,2.43
2023-01-07T17:25:51.425Z,3.50
2023-01-07T17:28:59.668Z,3.43
2023-01-07T17:32:03.777Z,2.70
2023-01-07T17:35:07.442Z,2.37
2023-01-07T17:38:13.194Z,1.73
2023-01-07T17:41:32.426Z,3.30
2023-01-07T17:44:36.793Z,1.23
2023-01-07T17:47:40.280Z,2.60
2023-01-07T17:50:44.018Z,1.17
2023-01-07T17:53:49.254Z,1.37
2023-01-07T17:56:53.639Z,1.60
2023-01-07T17:59:58.130Z,2.27
2023-01-07T18:03:01.173Z,2.90
2023-01-07T18:06:17.361Z,2.57
2023-01-07T18:09:20.416Z,2.17
2023-01-07T18:12:34.440Z,1.80
2023-01-07T18:15:38.788Z,2.27
2023-01-07T18:18:41.796Z,2.53
2023-01-07T18:21:44.812Z,2.00
2023-01-07T18:24:47.780Z,2.20
2023-01-07T18:27:53.208Z,3.07
2023-01-07T18:30:57.549Z,1.60
2023-01-07T18:34:00.537Z,2.97
2023-01-07T18:37:04.122Z,2.53
2023-01-07T18:40:08.642Z,3.70
2023-01-07T18:43:14.116Z,1.17
2023-01-07T18:46:18.512Z,0.90
2023-01-07T18:49:22.860Z,1.17
2023-01-07T18:52:26.153Z,1.20
2023-01-07T18:55:29.435Z,1.10
2023-01-07T18:58:32.389Z,1.57
2023-01-07T19:01:36.844Z,1.40
2023-01-07T19:04:41.502Z,2.10
2023-01-07T19:07:44.587Z,1.10
2023-01-07T19:10:49.583Z,1.30
2023-01-07T19:13:52.591Z,1.10
2023-01-07T19:16:57.075Z,2.13
2023-01-07T19:20:00.115Z,1.40
2023-01-07T19:23:03.335Z,1.20
2023-01-07T19:26:08.446Z,1.70
2023-01-07T19:29:13.973Z,1.53
2023-01-07T19:32:18.672Z,2.00
2023-01-07T19:35:21.918Z,2.73
2023-01-07T19:38:25.148Z,1.87
2023-01-07T19:41:28.297Z,1.23
2023-01-07T19:44:31.342Z,1.83
2023-01-07T19:47:36.206Z,1.93
2023-01-07T19:50:39.242Z,1.97
2023-01-07T19:53:42.234Z,3.47
2023-01-07T19:56:45.684Z,3.77
2023-01-07T19:59:48.694Z,4.20
2023-01-07T20:02:53.103Z,5.10
2023-01-07T20:05:56.115Z,2.57
2023-01-07T20:09:00.254Z,3.10
2023-01-07T20:12:03.255Z,2.43
2023-01-07T20:15:07.757Z,2.47
2023-01-07T20:18:15.025Z,2.90
2023-01-07T20:21:19.668Z,3.73
2023-01-07T20:24:22.654Z,2.07
2023-01-07T20:27:25.651Z,3.13
2023-01-07T20:30:28.596Z,2.53
2023-01-07T20:33:32.903Z,2.40
2023-01-07T20:36:35.885Z,3.00
2023-01-07T20:39:38.944Z,1.53
2023-01-07T20:42:42.013Z,1.30
2023-01-07T20:45:45.150Z,1.60
2023-01-07T20:48:50.007Z,1.63
2023-01-07T20:51:53.001Z,1.30
2023-01-07T20:54:55.990Z,2.13
2023-01-07T20:57:58.956Z,1.40
2023-01-07T21:01:04.148Z,1.23
2023-01-07T21:04:08.553Z,1.30
2023-01-07T21:07:11.539Z,1.20
2023-01-07T21:10:15.420Z,1.50
2023-01-07T21:13:18.474Z,3.47
2023-01-07T21:16:21.461Z,1.40
2023-01-07T21:19:25.803Z,1.20
2023-01-07T21:22:30.051Z,1.40
2023-01-07T21:25:33.336Z,1.30
2023-01-07T21:28:36.953Z,2.13
2023-01-07T21:31:39.960Z,1.40
2023-01-07T21:34:44.359Z,1.23
2023-01-07T21:37:47.311Z,1.70
2023-01-07T21:40:50.331Z,1.80
2023-01-07T21:43:53.390Z,1.33
2023-01-07T21:46:56.367Z,2.47
2023-01-07T21:50:00.767Z,1.57
2023-01-07T21:53:03.751Z,2.30
2023-01-07T21:56:08.664Z,1.77
2023-01-07T21:59:11.635Z,2.37
2023-01-07T22:02:17.684Z,2.60
2023-01-07T22:05:21.998Z,1.93
2023-01-07T22:08:25.085Z,1.83
2023-01-07T22:11:28.676Z,1.30
2023-01-07T22:14:31.820Z,1.77
2023-01-07T22:17:34.800Z,1.10
2023-01-07T22:20:39.121Z,1.60
2023-01-07T22:23:44.850Z,2.23
2023-01-07T22:26:48.082Z,1.73
2023-01-07T22:29:51.034Z,2.17
2023-01-07T22:32:53.999Z,2.23
2023-01-07T22:35:59.920Z,1.83
2023-01-07T22:39:04.697Z,2.67
2023-01-07T22:42:11.453Z,1.80
2023-01-07T22:45:18.758Z,1.60
2023-01-07T22:48:27.048Z,4.77
2023-01-07T22:51:36.515Z,2.20
2023-01-07T22:54:41.317Z,1.77
2023-01-07T22:57:44.387Z,1.97
2023-01-07T23:01:07.725Z,2.17
2023-01-07T23:04:10.800Z,1.70
2023-01-07T23:07:15.206Z,2.50
2023-01-07T23:10:18.195Z,2.60
2023-01-07T23:13:21.179Z,2.40
2023-01-07T23:16:24.153Z,2.30
2023-01-07T23:19:27.179Z,2.10
2023-01-07T23:22:31.489Z,2.13
2023-01-07T23:25:35.541Z,2.60
2023-01-07T23:28:38.564Z,2.33
2023-01-07T23:31:41.807Z,1.70
2023-01-07T23:34:44.870Z,1.80
2023-01-07T23:37:49.192Z,1.97
2023-01-07T23:41:00.956Z,2.10
2023-01-07T23:44:03.957Z,2.17
2023-01-07T23:47:07.042Z,3.43
2023-01-07T23:50:10.351Z,2.40
2023-01-07T23:53:14.655Z,1.77
2023-01-07T23:56:19.347Z,3.17
2023-01-07T23:59:22.481Z,2.30
